sensor_id;sensor_type;location;lat;lon;timestamp;P1;durP1;ratioP1;P2;durP2;ratioP2
77736;SDS011;66903;59.926;30.404;2023-12-20T00:01:20;1.27;;;0.50;;
77736;SDS011;66903;59.926;30.404;2023-12-20T00:06:32;1.00;;;0.40;;
77736;SDS011;66903;59.926;30.404;2023-12-20T00:11:43;2.20;;;0.70;;
77736;SDS011;66903;59.926;30.404;2023-12-20T00:16:54;1.88;;;0.50;;
77736;SDS011;66903;59.926;30.404;2023-12-20T00:22:04;2.08;;;0.52;;
77736;SDS011;66903;59.926;30.404;2023-12-20T00:27:15;1.30;;;0.47;;
77736;SDS011;66903;59.926;30.404;2023-12-20T00:32:26;1.30;;;0.50;;
77736;SDS011;66903;59.926;30.404;2023-12-20T00:37:37;1.20;;;0.47;;
77736;SDS011;66903;59.926;30.404;2023-12-20T00:42:48;1.38;;;0.50;;
77736;SDS011;66903;59.926;30.404;2023-12-20T00:47:59;1.02;;;0.52;;
77736;SDS011;66903;59.926;30.404;2023-12-20T00:53:09;1.48;;;0.47;;
77736;SDS011;66903;59.926;30.404;2023-12-20T00:58:20;1.00;;;0.35;;
77736;SDS011;66903;59.926;30.404;2023-12-20T01:03:31;0.95;;;0.40;;
77736;SDS011;66903;59.926;30.404;2023-12-20T01:08:42;2.05;;;0.60;;
77736;SDS011;66903;59.926;30.404;2023-12-20T01:13:53;1.83;;;0.70;;
77736;SDS011;66903;59.926;30.404;2023-12-20T01:19:03;0.63;;;0.28;;
77736;SDS011;66903;59.926;30.404;2023-12-20T01:24:14;0.32;;;0.25;;
77736;SDS011;66903;59.926;30.404;2023-12-20T01:29:25;0.55;;;0.35;;
77736;SDS011;66903;59.926;30.404;2023-12-20T01:34:36;1.80;;;0.50;;
77736;SDS011;66903;59.926;30.404;2023-12-20T01:39:47;0.95;;;0.40;;
77736;SDS011;66903;59.926;30.404;2023-12-20T01:44:57;0.90;;;0.30;;
77736;SDS011;66903;59.926;30.404;2023-12-20T01:50:08;0.15;;;0.10;;
77736;SDS011;66903;59.926;30.404;2023-12-20T01:55:19;1.00;;;0.30;;
77736;SDS011;66903;59.926;30.404;2023-12-20T02:00:30;2.08;;;0.38;;
77736;SDS011;66903;59.926;30.404;2023-12-20T02:05:41;1.35;;;0.30;;
77736;SDS011;66903;59.926;30.404;2023-12-20T02:10:53;0.65;;;0.30;;
77736;SDS011;66903;59.926;30.404;2023-12-20T02:16:05;1.15;;;0.20;;
77736;SDS011;66903;59.926;30.404;2023-12-20T02:21:17;0.82;;;0.32;;
77736;SDS011;66903;59.926;30.404;2023-12-20T02:26:28;0.57;;;0.22;;
77736;SDS011;66903;59.926;30.404;2023-12-20T02:31:39;0.55;;;0.28;;
77736;SDS011;66903;59.926;30.404;2023-12-20T02:36:50;0.50;;;0.30;;
77736;SDS011;66903;59.926;30.404;2023-12-20T02:42:01;0.90;;;0.30;;
77736;SDS011;66903;59.926;30.404;2023-12-20T02:47:12;1.05;;;0.30;;
77736;SDS011;66903;59.926;30.404;2023-12-20T02:52:23;1.50;;;0.40;;
77736;SDS011;66903;59.926;30.404;2023-12-20T02:57:35;0.63;;;0.25;;
77736;SDS011;66903;59.926;30.404;2023-12-20T03:02:46;0.20;;;0.13;;
77736;SDS011;66903;59.926;30.404;2023-12-20T03:07:57;0.65;;;0.20;;
77736;SDS011;66903;59.926;30.404;2023-12-20T03:13:08;0.98;;;0.30;;
77736;SDS011;66903;59.926;30.404;2023-12-20T03:18:18;0.38;;;0.25;;
77736;SDS011;66903;59.926;30.404;2023-12-20T03:23:29;0.38;;;0.15;;
77736;SDS011;66903;59.926;30.404;2023-12-20T03:28:42;0.20;;;0.20;;
77736;SDS011;66903;59.926;30.404;2023-12-20T03:33:53;0.52;;;0.30;;
77736;SDS011;66903;59.926;30.404;2023-12-20T03:39:04;0.45;;;0.28;;
77736;SDS011;66903;59.926;30.404;2023-12-20T03:44:15;0.32;;;0.20;;
77736;SDS011;66903;59.926;30.404;2023-12-20T03:49:26;0.50;;;0.20;;
77736;SDS011;66903;59.926;30.404;2023-12-20T03:54:37;4.25;;;1.05;;
77736;SDS011;66903;59.926;30.404;2023-12-20T03:59:48;4.22;;;0.90;;
77736;SDS011;66903;59.926;30.404;2023-12-20T04:04:59;3.58;;;0.93;;
77736;SDS011;66903;59.926;30.404;2023-12-20T04:10:10;8.57;;;1.42;;
77736;SDS011;66903;59.926;30.404;2023-12-20T04:15:20;9.10;;;1.70;;
77736;SDS011;66903;59.926;30.404;2023-12-20T04:20:31;6.57;;;1.20;;
77736;SDS011;66903;59.926;30.404;2023-12-20T04:25:42;10.25;;;1.33;;
77736;SDS011;66903;59.926;30.404;2023-12-20T04:30:53;10.88;;;1.67;;
77736;SDS011;66903;59.926;30.404;2023-12-20T04:36:03;6.13;;;1.23;;
77736;SDS011;66903;59.926;30.404;2023-12-20T04:41:15;9.00;;;1.10;;
77736;SDS011;66903;59.926;30.404;2023-12-20T04:46:26;4.10;;;1.13;;
77736;SDS011;66903;59.926;30.404;2023-12-20T04:51:37;9.38;;;1.30;;
77736;SDS011;66903;59.926;30.404;2023-12-20T04:56:49;2.88;;;0.68;;
77736;SDS011;66903;59.926;30.404;2023-12-20T05:02:00;3.95;;;1.10;;
77736;SDS011;66903;59.926;30.404;2023-12-20T05:07:16;4.97;;;0.80;;
77736;SDS011;66903;59.926;30.404;2023-12-20T05:12:27;4.88;;;0.57;;
77736;SDS011;66903;59.926;30.404;2023-12-20T05:17:38;2.75;;;0.88;;
77736;SDS011;66903;59.926;30.404;2023-12-20T05:22:49;2.35;;;0.43;;
77736;SDS011;66903;59.926;30.404;2023-12-20T05:28:00;3.30;;;0.75;;
77736;SDS011;66903;59.926;30.404;2023-12-20T05:33:11;0.47;;;0.25;;
77736;SDS011;66903;59.926;30.404;2023-12-20T05:38:22;4.10;;;0.70;;
77736;SDS011;66903;59.926;30.404;2023-12-20T05:43:33;1.75;;;0.55;;
77736;SDS011;66903;59.926;30.404;2023-12-20T05:48:44;1.63;;;0.45;;
77736;SDS011;66903;59.926;30.404;2023-12-20T05:53:55;0.98;;;0.32;;
77736;SDS011;66903;59.926;30.404;2023-12-20T05:59:06;2.85;;;0.70;;
77736;SDS011;66903;59.926;30.404;2023-12-20T06:04:16;2.60;;;0.70;;
77736;SDS011;66903;59.926;30.404;2023-12-20T06:09:27;2.83;;;0.70;;
77736;SDS011;66903;59.926;30.404;2023-12-20T06:14:38;1.90;;;0.50;;
77736;SDS011;66903;59.926;30.404;2023-12-20T06:19:49;2.10;;;0.55;;
77736;SDS011;66903;59.926;30.404;2023-12-20T06:25:00;3.83;;;0.73;;
77736;SDS011;66903;59.926;30.404;2023-12-20T06:30:11;1.40;;;0.32;;
77736;SDS011;66903;59.926;30.404;2023-12-20T06:35:22;0.93;;;0.30;;
77736;SDS011;66903;59.926;30.404;2023-12-20T06:46:14;2.42;;;0.55;;
77736;SDS011;66903;59.926;30.404;2023-12-20T06:51:24;2.92;;;0.40;;
77736;SDS011;66903;59.926;30.404;2023-12-20T06:56:35;2.08;;;0.35;;
77736;SDS011;66903;59.926;30.404;2023-12-20T07:01:49;1.27;;;0.30;;
77736;SDS011;66903;59.926;30.404;2023-12-20T07:07:00;1.55;;;0.50;;
77736;SDS011;66903;59.926;30.404;2023-12-20T07:12:12;2.00;;;0.60;;
77736;SDS011;66903;59.926;30.404;2023-12-20T07:17:23;2.42;;;0.50;;
77736;SDS011;66903;59.926;30.404;2023-12-20T07:22:33;1.20;;;0.40;;
77736;SDS011;66903;59.926;30.404;2023-12-20T07:27:48;1.60;;;0.32;;
77736;SDS011;66903;59.926;30.404;2023-12-20T07:32:59;1.35;;;0.47;;
77736;SDS011;66903;59.926;30.404;2023-12-20T07:43:22;1.27;;;0.43;;
77736;SDS011;66903;59.926;30.404;2023-12-20T07:48:34;1.63;;;0.45;;
77736;SDS011;66903;59.926;30.404;2023-12-20T07:53:45;1.10;;;0.32;;
77736;SDS011;66903;59.926;30.404;2023-12-20T07:58:56;1.17;;;0.35;;
77736;SDS011;66903;59.926;30.404;2023-12-20T08:04:07;1.48;;;0.50;;
77736;SDS011;66903;59.926;30.404;2023-12-20T08:09:18;2.63;;;0.47;;
77736;SDS011;66903;59.926;30.404;2023-12-20T08:14:29;1.90;;;0.45;;
77736;SDS011;66903;59.926;30.404;2023-12-20T08:19:40;1.50;;;0.38;;
77736;SDS011;66903;59.926;30.404;2023-12-20T08:24:51;2.35;;;0.50;;
77736;SDS011;66903;59.926;30.404;2023-12-20T08:30:02;2.38;;;0.43;;
77736;SDS011;66903;59.926;30.404;2023-12-20T08:35:14;1.92;;;0.45;;
77736;SDS011;66903;59.926;30.404;2023-12-20T08:40:25;1.90;;;0.45;;
77736;SDS011;66903;59.926;30.404;2023-12-20T08:45:36;1.67;;;0.40;;
77736;SDS011;66903;59.926;30.404;2023-12-20T08:50:47;1.80;;;0.40;;
77736;SDS011;66903;59.926;30.404;2023-12-20T08:56:00;1.75;;;0.50;;
77736;SDS011;66903;59.926;30.404;2023-12-20T09:01:15;0.93;;;0.30;;
77736;SDS011;66903;59.926;30.404;2023-12-20T09:06:26;1.98;;;0.50;;
77736;SDS011;66903;59.926;30.404;2023-12-20T09:11:36;1.02;;;0.30;;
77736;SDS011;66903;59.926;30.404;2023-12-20T09:16:47;1.50;;;0.50;;
77736;SDS011;66903;59.926;30.404;2023-12-20T09:21:58;1.25;;;0.28;;
77736;SDS011;66903;59.926;30.404;2023-12-20T09:27:09;1.60;;;0.52;;
77736;SDS011;66903;59.926;30.404;2023-12-20T09:32:19;1.23;;;0.40;;
77736;SDS011;66903;59.926;30.404;2023-12-20T09:37:33;2.38;;;0.50;;
77736;SDS011;66903;59.926;30.404;2023-12-20T09:42:56;0.52;;;0.17;;
77736;SDS011;66903;59.926;30.404;2023-12-20T09:48:08;0.40;;;0.15;;
77736;SDS011;66903;59.926;30.404;2023-12-20T09:53:22;0.68;;;0.22;;
77736;SDS011;66903;59.926;30.404;2023-12-20T09:58:39;2.25;;;0.52;;
77736;SDS011;66903;59.926;30.404;2023-12-20T10:03:54;1.67;;;0.43;;
77736;SDS011;66903;59.926;30.404;2023-12-20T10:09:05;0.47;;;0.28;;
77736;SDS011;66903;59.926;30.404;2023-12-20T10:14:16;3.50;;;0.47;;
77736;SDS011;66903;59.926;30.404;2023-12-20T10:19:27;0.28;;;0.10;;
77736;SDS011;66903;59.926;30.404;2023-12-20T10:24:39;1.02;;;0.28;;
77736;SDS011;66903;59.926;30.404;2023-12-20T10:29:50;0.73;;;0.20;;
77736;SDS011;66903;59.926;30.404;2023-12-20T10:35:01;1.58;;;0.50;;
77736;SDS011;66903;59.926;30.404;2023-12-20T10:40:14;0.98;;;0.40;;
77736;SDS011;66903;59.926;30.404;2023-12-20T10:45:25;0.90;;;0.30;;
77736;SDS011;66903;59.926;30.404;2023-12-20T10:50:36;1.05;;;0.32;;
77736;SDS011;66903;59.926;30.404;2023-12-20T10:55:52;1.00;;;0.35;;
77736;SDS011;66903;59.926;30.404;2023-12-20T11:01:07;0.95;;;0.30;;
77736;SDS011;66903;59.926;30.404;2023-12-20T11:12:10;0.75;;;0.30;;
77736;SDS011;66903;59.926;30.404;2023-12-20T11:17:26;0.63;;;0.20;;
77736;SDS011;66903;59.926;30.404;2023-12-20T11:22:51;2.08;;;0.40;;
77736;SDS011;66903;59.926;30.404;2023-12-20T11:28:06;0.88;;;0.40;;
77736;SDS011;66903;59.926;30.404;2023-12-20T11:33:22;1.23;;;0.40;;
77736;SDS011;66903;59.926;30.404;2023-12-20T11:38:37;1.75;;;0.50;;
77736;SDS011;66903;59.926;30.404;2023-12-20T11:43:48;1.30;;;0.40;;
77736;SDS011;66903;59.926;30.404;2023-12-20T11:49:00;1.25;;;0.50;;
77736;SDS011;66903;59.926;30.404;2023-12-20T11:54:11;2.25;;;0.50;;
77736;SDS011;66903;59.926;30.404;2023-12-20T11:59:23;2.03;;;0.50;;
77736;SDS011;66903;59.926;30.404;2023-12-20T12:04:34;3.58;;;0.65;;
77736;SDS011;66903;59.926;30.404;2023-12-20T12:09:45;1.17;;;0.40;;
77736;SDS011;66903;59.926;30.404;2023-12-20T12:14:56;1.23;;;0.40;;
77736;SDS011;66903;59.926;30.404;2023-12-20T12:20:08;1.42;;;0.43;;
77736;SDS011;66903;59.926;30.404;2023-12-20T12:25:20;1.55;;;0.50;;
77736;SDS011;66903;59.926;30.404;2023-12-20T12:30:32;0.80;;;0.40;;
77736;SDS011;66903;59.926;30.404;2023-12-20T12:35:44;2.55;;;0.40;;
77736;SDS011;66903;59.926;30.404;2023-12-20T12:40:55;1.17;;;0.30;;
77736;SDS011;66903;59.926;30.404;2023-12-20T12:46:06;2.13;;;0.43;;
77736;SDS011;66903;59.926;30.404;2023-12-20T12:51:16;1.73;;;0.57;;
77736;SDS011;66903;59.926;30.404;2023-12-20T12:56:27;2.08;;;0.55;;
77736;SDS011;66903;59.926;30.404;2023-12-20T13:01:38;1.63;;;0.55;;
77736;SDS011;66903;59.926;30.404;2023-12-20T13:06:49;0.63;;;0.30;;
77736;SDS011;66903;59.926;30.404;2023-12-20T13:12:00;1.23;;;0.40;;
77736;SDS011;66903;59.926;30.404;2023-12-20T13:17:13;2.38;;;0.63;;
77736;SDS011;66903;59.926;30.404;2023-12-20T13:22:25;1.63;;;0.40;;
77736;SDS011;66903;59.926;30.404;2023-12-20T13:27:36;2.47;;;0.60;;
77736;SDS011;66903;59.926;30.404;2023-12-20T13:32:47;0.82;;;0.28;;
77736;SDS011;66903;59.926;30.404;2023-12-20T13:37:59;1.63;;;0.50;;
77736;SDS011;66903;59.926;30.404;2023-12-20T13:43:10;1.88;;;0.50;;
77736;SDS011;66903;59.926;30.404;2023-12-20T13:48:23;1.27;;;0.40;;
77736;SDS011;66903;59.926;30.404;2023-12-20T13:53:33;1.55;;;0.38;;
77736;SDS011;66903;59.926;30.404;2023-12-20T13:58:44;1.75;;;0.50;;
77736;SDS011;66903;59.926;30.404;2023-12-20T14:03:56;1.65;;;0.40;;
77736;SDS011;66903;59.926;30.404;2023-12-20T14:09:07;2.13;;;0.50;;
77736;SDS011;66903;59.926;30.404;2023-12-20T14:14:18;7.97;;;0.80;;
77736;SDS011;66903;59.926;30.404;2023-12-20T14:19:29;1.52;;;0.30;;
77736;SDS011;66903;59.926;30.404;2023-12-20T14:24:40;1.88;;;0.50;;
77736;SDS011;66903;59.926;30.404;2023-12-20T14:29:51;1.73;;;0.52;;
77736;SDS011;66903;59.926;30.404;2023-12-20T14:35:01;1.20;;;0.20;;
77736;SDS011;66903;59.926;30.404;2023-12-20T14:40:14;1.85;;;0.40;;
77736;SDS011;66903;59.926;30.404;2023-12-20T14:45:29;4.50;;;0.52;;
77736;SDS011;66903;59.926;30.404;2023-12-20T14:50:40;1.27;;;0.43;;
77736;SDS011;66903;59.926;30.404;2023-12-20T14:55:52;0.45;;;0.28;;
77736;SDS011;66903;59.926;30.404;2023-12-20T15:01:03;1.88;;;0.93;;
77736;SDS011;66903;59.926;30.404;2023-12-20T15:06:14;2.13;;;0.40;;
77736;SDS011;66903;59.926;30.404;2023-12-20T15:11:24;3.63;;;0.40;;
77736;SDS011;66903;59.926;30.404;2023-12-20T15:16:36;1.05;;;0.32;;
77736;SDS011;66903;59.926;30.404;2023-12-20T15:21:47;1.45;;;0.50;;
77736;SDS011;66903;59.926;30.404;2023-12-20T15:26:58;2.13;;;1.08;;
77736;SDS011;66903;59.926;30.404;2023-12-20T15:32:09;1.13;;;0.40;;
77736;SDS011;66903;59.926;30.404;2023-12-20T15:37:19;1.83;;;0.50;;
77736;SDS011;66903;59.926;30.404;2023-12-20T15:42:30;3.10;;;0.80;;
77736;SDS011;66903;59.926;30.404;2023-12-20T15:47:42;2.15;;;0.50;;
77736;SDS011;66903;59.926;30.404;2023-12-20T15:52:54;1.88;;;0.50;;
77736;SDS011;66903;59.926;30.404;2023-12-20T15:58:06;3.17;;;0.43;;
77736;SDS011;66903;59.926;30.404;2023-12-20T16:03:17;1.27;;;0.32;;
77736;SDS011;66903;59.926;30.404;2023-12-20T16:08:27;1.92;;;0.50;;
77736;SDS011;66903;59.926;30.404;2023-12-20T16:13:38;0.98;;;0.40;;
77736;SDS011;66903;59.926;30.404;2023-12-20T16:18:49;1.92;;;0.50;;
77736;SDS011;66903;59.926;30.404;2023-12-20T16:24:00;0.95;;;0.35;;
77736;SDS011;66903;59.926;30.404;2023-12-20T16:29:11;0.90;;;0.35;;
77736;SDS011;66903;59.926;30.404;2023-12-20T16:34:23;0.68;;;0.28;;
77736;SDS011;66903;59.926;30.404;2023-12-20T16:39:34;2.00;;;0.50;;
77736;SDS011;66903;59.926;30.404;2023-12-20T16:44:45;1.83;;;0.50;;
77736;SDS011;66903;59.926;30.404;2023-12-20T16:49:56;1.38;;;0.55;;
77736;SDS011;66903;59.926;30.404;2023-12-20T16:55:09;1.90;;;0.30;;
77736;SDS011;66903;59.926;30.404;2023-12-20T17:00:21;1.00;;;0.40;;
77736;SDS011;66903;59.926;30.404;2023-12-20T17:05:33;1.30;;;0.43;;
77736;SDS011;66903;59.926;30.404;2023-12-20T17:10:44;3.50;;;0.75;;
77736;SDS011;66903;59.926;30.404;2023-12-20T17:15:55;10.43;;;1.00;;
77736;SDS011;66903;59.926;30.404;2023-12-20T17:21:06;2.60;;;0.70;;
77736;SDS011;66903;59.926;30.404;2023-12-20T17:26:17;4.55;;;0.80;;
77736;SDS011;66903;59.926;30.404;2023-12-20T17:31:31;3.42;;;0.80;;
77736;SDS011;66903;59.926;30.404;2023-12-20T17:36:45;4.85;;;0.75;;
77736;SDS011;66903;59.926;30.404;2023-12-20T17:41:57;2.17;;;0.63;;
77736;SDS011;66903;59.926;30.404;2023-12-20T17:47:08;2.67;;;0.70;;
77736;SDS011;66903;59.926;30.404;2023-12-20T17:52:19;3.42;;;0.70;;
77736;SDS011;66903;59.926;30.404;2023-12-20T17:57:29;4.18;;;0.73;;
77736;SDS011;66903;59.926;30.404;2023-12-20T18:02:40;4.43;;;0.90;;
77736;SDS011;66903;59.926;30.404;2023-12-20T18:07:51;3.45;;;0.95;;
77736;SDS011;66903;59.926;30.404;2023-12-20T18:13:03;4.65;;;0.82;;
77736;SDS011;66903;59.926;30.404;2023-12-20T18:18:14;2.45;;;0.63;;
77736;SDS011;66903;59.926;30.404;2023-12-20T18:23:24;1.98;;;0.52;;
77736;SDS011;66903;59.926;30.404;2023-12-20T18:28:36;1.75;;;0.45;;
77736;SDS011;66903;59.926;30.404;2023-12-20T18:33:47;4.45;;;0.70;;
77736;SDS011;66903;59.926;30.404;2023-12-20T18:38:58;1.63;;;0.47;;
77736;SDS011;66903;59.926;30.404;2023-12-20T18:44:09;2.65;;;0.55;;
77736;SDS011;66903;59.926;30.404;2023-12-20T18:49:19;6.18;;;1.30;;
77736;SDS011;66903;59.926;30.404;2023-12-20T18:54:31;12.63;;;2.13;;
77736;SDS011;66903;59.926;30.404;2023-12-20T18:59:46;8.55;;;2.40;;
77736;SDS011;66903;59.926;30.404;2023-12-20T19:04:57;16.92;;;3.30;;
77736;SDS011;66903;59.926;30.404;2023-12-20T19:10:09;16.67;;;2.70;;
77736;SDS011;66903;59.926;30.404;2023-12-20T19:15:19;9.15;;;1.90;;
77736;SDS011;66903;59.926;30.404;2023-12-20T19:20:30;5.90;;;1.63;;
77736;SDS011;66903;59.926;30.404;2023-12-20T19:25:41;7.40;;;1.92;;
77736;SDS011;66903;59.926;30.404;2023-12-20T19:30:52;11.50;;;2.58;;
77736;SDS011;66903;59.926;30.404;2023-12-20T19:36:08;8.52;;;3.95;;
77736;SDS011;66903;59.926;30.404;2023-12-20T19:41:20;10.70;;;4.55;;
77736;SDS011;66903;59.926;30.404;2023-12-20T19:46:31;14.35;;;4.70;;
77736;SDS011;66903;59.926;30.404;2023-12-20T19:51:42;12.50;;;4.03;;
77736;SDS011;66903;59.926;30.404;2023-12-20T19:56:52;13.25;;;3.72;;
77736;SDS011;66903;59.926;30.404;2023-12-20T20:02:03;8.63;;;2.67;;
77736;SDS011;66903;59.926;30.404;2023-12-20T20:07:14;8.30;;;3.08;;
77736;SDS011;66903;59.926;30.404;2023-12-20T20:12:25;9.63;;;2.38;;
77736;SDS011;66903;59.926;30.404;2023-12-20T20:17:36;6.47;;;2.08;;
77736;SDS011;66903;59.926;30.404;2023-12-20T20:28:00;6.18;;;2.00;;
77736;SDS011;66903;59.926;30.404;2023-12-20T20:33:11;6.18;;;1.58;;
77736;SDS011;66903;59.926;30.404;2023-12-20T20:38:22;5.63;;;1.30;;
77736;SDS011;66903;59.926;30.404;2023-12-20T20:43:33;5.70;;;1.67;;
77736;SDS011;66903;59.926;30.404;2023-12-20T20:48:44;8.07;;;1.25;;
77736;SDS011;66903;59.926;30.404;2023-12-20T20:53:56;2.78;;;0.90;;
77736;SDS011;66903;59.926;30.404;2023-12-20T20:59:07;4.57;;;1.25;;
77736;SDS011;66903;59.926;30.404;2023-12-20T21:04:18;5.47;;;1.38;;
77736;SDS011;66903;59.926;30.404;2023-12-20T21:09:28;4.70;;;1.23;;
77736;SDS011;66903;59.926;30.404;2023-12-20T21:14:39;4.22;;;1.17;;
77736;SDS011;66903;59.926;30.404;2023-12-20T21:19:50;4.72;;;1.48;;
77736;SDS011;66903;59.926;30.404;2023-12-20T21:25:01;3.63;;;1.20;;
77736;SDS011;66903;59.926;30.404;2023-12-20T21:30:14;2.90;;;0.82;;
77736;SDS011;66903;59.926;30.404;2023-12-20T21:35:25;3.72;;;0.90;;
77736;SDS011;66903;59.926;30.404;2023-12-20T21:40:36;2.92;;;0.77;;
77736;SDS011;66903;59.926;30.404;2023-12-20T21:45:47;6.72;;;2.17;;
77736;SDS011;66903;59.926;30.404;2023-12-20T21:50:58;5.50;;;1.90;;
77736;SDS011;66903;59.926;30.404;2023-12-20T21:56:09;3.97;;;1.17;;
77736;SDS011;66903;59.926;30.404;2023-12-20T22:01:20;5.47;;;2.30;;
77736;SDS011;66903;59.926;30.404;2023-12-20T22:06:31;7.20;;;1.10;;
77736;SDS011;66903;59.926;30.404;2023-12-20T22:11:42;3.38;;;1.10;;
77736;SDS011;66903;59.926;30.404;2023-12-20T22:16:53;2.85;;;0.80;;
77736;SDS011;66903;59.926;30.404;2023-12-20T22:22:04;2.58;;;0.90;;
77736;SDS011;66903;59.926;30.404;2023-12-20T22:27:15;4.13;;;0.93;;
77736;SDS011;66903;59.926;30.404;2023-12-20T22:32:26;2.53;;;0.60;;
77736;SDS011;66903;59.926;30.404;2023-12-20T22:37:38;2.80;;;1.08;;
77736;SDS011;66903;59.926;30.404;2023-12-20T22:42:49;2.08;;;0.70;;
77736;SDS011;66903;59.926;30.404;2023-12-20T22:48:01;2.33;;;0.88;;
77736;SDS011;66903;59.926;30.404;2023-12-20T22:53:12;1.95;;;0.68;;
77736;SDS011;66903;59.926;30.404;2023-12-20T22:58:24;2.25;;;0.70;;
77736;SDS011;66903;59.926;30.404;2023-12-20T23:03:36;2.42;;;0.70;;
77736;SDS011;66903;59.926;30.404;2023-12-20T23:08:47;1.52;;;0.60;;
77736;SDS011;66903;59.926;30.404;2023-12-20T23:13:58;1.98;;;0.73;;
77736;SDS011;66903;59.926;30.404;2023-12-20T23:19:09;2.80;;;0.70;;
77736;SDS011;66903;59.926;30.404;2023-12-20T23:24:20;1.92;;;0.68;;
77736;SDS011;66903;59.926;30.404;2023-12-20T23:29:31;2.50;;;0.70;;
77736;SDS011;66903;59.926;30.404;2023-12-20T23:34:42;1.55;;;0.50;;
77736;SDS011;66903;59.926;30.404;2023-12-20T23:39:53;4.07;;;0.80;;
77736;SDS011;66903;59.926;30.404;2023-12-20T23:45:05;1.30;;;0.47;;
77736;SDS011;66903;59.926;30.404;2023-12-20T23:50:17;1.60;;;0.50;;
77736;SDS011;66903;59.926;30.404;2023-12-20T23:55:28;1.17;;;0.50;;
